Time,TemperatureF,DewpointF,PressureIn,WindDirection,WindDirectionDegrees,WindSpeedMPH,WindSpeedGustMPH,Humidity,HourlyPrecipIn,Conditions,Clouds,dailyrainin,SolarRadiationWatts/m^2,SoftwareType,DateUTC
2013-08-04 00:00:00,72.5,69.4,29.92,SW,221,0.0,6.0,90,0.00,,---,0.00,0.00,VWS V14.01,2013-08-04 04:00:00,
2013-08-04 00:01:00,72.6,69.5,29.92,West,281,0.0,6.0,90,0.00,,---,0.00,0.00,VWS V14.01,2013-08-04 04:01:00,
2013-08-04 00:02:00,72.6,69.5,29.92,SW,226,5.0,6.0,90,0.00,,---,0.00,0.00,VWS V14.01,2013-08-04 04:02:00,
2013-08-04 00:03:00,72.6,69.5,29.92,WSW,238,0.0,6.0,90,0.00,,---,0.00,0.00,VWS V14.01,2013-08-04 04:03:00,
2013-08-04 00:08:00,72.5,69.4,29.91,SW,221,1.0,2.0,90,0.00,,---,0.00,0.00,VWS V14.01,2013-08-04 04:08:00,
2013-08-04 00:10:00,72.3,69.2,29.91,WNW,290,1.0,7.0,90,0.00,,---,0.00,0.00,VWS V14.01,2013-08-04 04:10:00,
2013-08-04 00:14:00,72.4,69.3,29.91,WSW,246,0.0,7.0,90,0.00,,---,0.00,0.00,VWS V14.01,2013-08-04 04:14:00,
2013-08-04 00:19:00,72.3,69.5,29.91,WNW,290,0.0,1.0,91,0.00,,---,0.00,0.00,VWS V14.01,2013-08-04 04:19:00,
2013-08-04 00:20:00,72.4,69.6,29.91,SW,220,1.0,6.0,91,0.00,,---,0.00,0.00,VWS V14.01,2013-08-04 04:20:00,
2013-08-04 00:24:00,72.3,69.5,29.91,WSW,257,1.0,5.0,91,0.00,,---,0.00,0.00,VWS V14.01,2013-08-04 04:24:00,
2013-08-04 00:29:00,72.4,69.6,29.92,WSW,242,1.0,6.0,91,0.00,,---,0.00,0.00,VWS V14.01,2013-08-04 04:29:00,
2013-08-04 00:30:00,72.5,69.7,29.91,SW,231,1.0,8.0,91,0.00,,---,0.00,0.00,VWS V14.01,2013-08-04 04:30:00,
2013-08-04 00:34:00,72.5,69.7,29.91,SW,225,2.0,8.0,91,0.00,,---,0.00,0.00,VWS V14.01,2013-08-04 04:34:00,
2013-08-04 00:39:00,72.6,69.8,29.91,SW,231,0.0,2.0,91,0.00,,---,0.00,0.00,VWS V14.01,2013-08-04 04:39:00,
2013-08-04 00:40:00,72.5,69.4,29.91,SW,227,0.0,6.0,90,0.00,,---,0.00,0.00,VWS V14.01,2013-08-04 04:40:00,
2013-08-04 00:44:00,72.6,69.5,29.91,SW,232,0.0,4.0,90,0.00,,---,0.00,0.00,VWS V14.01,2013-08-04 04:44:00,
2013-08-04 00:49:00,72.5,69.4,29.91,SW,225,0.0,1.0,90,0.00,,---,0.00,0.00,VWS V14.01,2013-08-04 04:49:00,
2013-08-04 00:50:00,72.4,69.6,29.91,WNW,290,0.0,4.0,91,0.00,,---,0.00,0.00,VWS V14.01,2013-08-04 04:50:00,
2013-08-04 00:55:00,72.4,69.6,29.91,WNW,294,0.0,4.0,91,0.00,,---,0.00,0.00,VWS V14.01,2013-08-04 04:55:00,
2013-08-04 01:00:00,72.3,69.5,29.91,WSW,239,1.0,4.0,91,0.00,,---,0.00,0.00,VWS V14.01,2013-08-04 05:00:00,
2013-08-04 01:05:00,72.3,69.5,29.91,WSW,238,3.0,5.0,91,0.00,,---,0.00,0.00,VWS V14.01,2013-08-04 05:05:00,
2013-08-04 01:09:00,72.3,69.5,29.91,WSW,247,2.0,2.0,91,0.00,,---,0.00,0.00,VWS V14.01,2013-08-04 05:09:00,
2013-08-04 01:10:00,72.2,69.4,29.91,West,281,0.0,4.0,91,0.00,,---,0.00,0.00,VWS V14.01,2013-08-04 05:10:00,
2013-08-04 01:15:00,72.2,69.4,29.91,WSW,248,1.0,4.0,91,0.00,,---,0.00,0.00,VWS V14.01,2013-08-04 05:15:00,
2013-08-04 01:20:00,72.2,69.4,29.91,WSW,247,2.0,4.0,91,0.00,,---,0.00,0.00,VWS V14.01,2013-08-04 05:20:00,
2013-08-04 01:25:00,72.1,69.7,29.91,West,279,0.0,7.0,92,0.00,,---,0.00,0.00,VWS V14.01,2013-08-04 05:25:00,
2013-08-04 01:30:00,72.0,69.6,29.91,WNW,282,0.0,3.0,92,0.00,,---,0.00,0.00,VWS V14.01,2013-08-04 05:30:00,
2013-08-04 01:35:00,72.0,69.6,29.90,SW,223,0.0,3.0,92,0.00,,---,0.00,0.00,VWS V14.01,2013-08-04 05:35:00,
2013-08-04 01:40:00,71.9,69.4,29.91,SW,223,0.0,3.0,92,0.00,,---,0.00,0.00,VWS V14.01,2013-08-04 05:40:00,
2013-08-04 01:45:00,72.0,69.6,29.91,West,277,0.0,4.0,92,0.00,,---,0.00,0.00,VWS V14.01,2013-08-04 05:45:00,
2013-08-04 01:50:00,72.0,69.6,29.91,SW,234,0.0,2.0,92,0.00,,---,0.00,0.00,VWS V14.01,2013-08-04 05:50:00,
2013-08-04 01:55:00,72.1,70.0,29.90,SW,236,1.0,4.0,93,0.00,,---,0.00,0.00,VWS V14.01,2013-08-04 05:55:00,
2013-08-04 02:00:00,72.1,69.7,29.90,SW,222,0.0,4.0,92,0.00,,---,0.00,0.00,VWS V14.01,2013-08-04 06:00:00,
2013-08-04 02:05:00,72.2,69.8,29.90,SW,215,2.0,6.0,92,0.00,,---,0.00,0.00,VWS V14.01,2013-08-04 06:05:00,
2013-08-04 02:10:00,72.1,69.7,29.90,SW,233,0.0,7.0,92,0.00,,---,0.00,0.00,VWS V14.01,2013-08-04 06:10:00,
2013-08-04 02:11:00,72.2,69.8,29.90,WSW,256,3.0,4.0,92,0.00,,---,0.00,0.00,VWS V14.01,2013-08-04 06:11:00,
2013-08-04 02:15:00,72.1,69.7,29.90,SW,228,0.0,7.0,92,0.00,,---,0.00,0.00,VWS V14.01,2013-08-04 06:15:00,
2013-08-04 02:20:00,72.0,69.9,29.90,West,276,1.0,6.0,93,0.00,,---,0.00,0.00,VWS V14.01,2013-08-04 06:20:00,
2013-08-04 02:21:00,72.1,69.7,29.90,WNW,288,0.0,3.0,92,0.00,,---,0.00,0.00,VWS V14.01,2013-08-04 06:21:00,
2013-08-04 02:26:00,72.0,69.9,29.90,SW,235,0.0,6.0,93,0.00,,---,0.00,0.00,VWS V14.01,2013-08-04 06:26:00,
2013-08-04 02:30:00,71.6,69.8,29.90,WSW,237,0.0,7.0,94,0.02,,---,0.02,0.00,VWS V14.01,2013-08-04 06:30:00,
2013-08-04 02:31:00,71.9,69.8,29.90,WSW,238,0.0,5.0,93,0.01,,---,0.01,0.00,VWS V14.01,2013-08-04 06:31:00,
2013-08-04 02:36:00,71.7,69.9,29.90,SW,232,0.0,5.0,94,0.02,,---,0.02,0.00,VWS V14.01,2013-08-04 06:36:00,
2013-08-04 02:40:00,71.2,69.7,29.90,SW,231,0.0,6.0,95,0.03,,---,0.03,0.00,VWS V14.01,2013-08-04 06:40:00,
2013-08-04 02:41:00,71.5,69.7,29.90,WSW,240,3.0,6.0,94,0.03,,---,0.03,0.00,VWS V14.01,2013-08-04 06:41:00,
2013-08-04 02:46:00,71.3,69.5,29.90,WSW,251,0.0,6.0,94,0.03,,---,0.03,0.00,VWS V14.01,2013-08-04 06:46:00,
2013-08-04 02:50:00,70.8,69.3,29.90,SW,227,0.0,5.0,95,0.03,,---,0.03,0.00,VWS V14.01,2013-08-04 06:50:00,
2013-08-04 02:51:00,71.1,69.6,29.90,WSW,252,2.0,4.0,95,0.03,,---,0.03,0.00,VWS V14.01,2013-08-04 06:51:00,
2013-08-04 02:56:00,70.9,69.4,29.90,SW,214,2.0,5.0,95,0.03,,---,0.03,0.00,VWS V14.01,2013-08-04 06:56:00,
2013-08-04 03:00:00,70.7,69.5,29.90,SW,233,0.0,3.0,96,0.03,,---,0.03,0.00,VWS V14.01,2013-08-04 07:00:00,
2013-08-04 03:01:00,70.8,69.3,29.90,SW,233,0.0,2.0,95,0.03,,---,0.03,0.00,VWS V14.01,2013-08-04 07:01:00,
2013-08-04 03:06:00,70.7,69.2,29.90,SW,233,0.0,3.0,95,0.03,,---,0.03,0.00,VWS V14.01,2013-08-04 07:06:00,
2013-08-04 03:10:00,70.6,69.4,29.90,SW,236,0.0,4.0,96,0.03,,---,0.03,0.00,VWS V14.01,2013-08-04 07:10:00,
2013-08-04 03:11:00,70.7,69.5,29.90,West,273,0.0,3.0,96,0.03,,---,0.03,0.00,VWS V14.01,2013-08-04 07:11:00,
2013-08-04 03:16:00,70.6,69.4,29.90,WSW,254,0.0,3.0,96,0.03,,---,0.03,0.00,VWS V14.01,2013-08-04 07:16:00,
2013-08-04 03:20:00,70.6,69.4,29.90,WSW,252,0.0,4.0,96,0.03,,---,0.03,0.00,VWS V14.01,2013-08-04 07:20:00,
2013-08-04 03:21:00,70.6,69.4,29.90,SW,235,3.0,3.0,96,0.03,,---,0.03,0.00,VWS V14.01,2013-08-04 07:21:00,
2013-08-04 03:27:00,70.6,69.4,29.90,WSW,252,0.0,4.0,96,0.03,,---,0.03,0.00,VWS V14.01,2013-08-04 07:27:00,
2013-08-04 03:30:00,70.6,69.7,29.90,SW,231,0.0,7.0,97,0.03,,---,0.03,0.00,VWS V14.01,2013-08-04 07:30:00,
2013-08-04 03:32:00,70.5,69.3,29.90,WSW,252,1.0,1.0,96,0.03,,---,0.03,0.00,VWS V14.01,2013-08-04 07:32:00,
2013-08-04 03:37:00,70.6,69.7,29.90,SW,231,0.0,7.0,97,0.03,,---,0.03,0.00,VWS V14.01,2013-08-04 07:37:00,
2013-08-04 03:40:00,70.5,69.6,29.89,SW,231,0.0,3.0,97,0.01,,---,0.03,0.00,VWS V14.01,2013-08-04 07:40:00,
2013-08-04 03:42:00,70.6,69.7,29.90,SW,231,0.0,3.0,97,0.01,,---,0.03,0.00,VWS V14.01,2013-08-04 07:42:00,
2013-08-04 03:47:00,70.6,69.7,29.89,SW,231,0.0,3.0,97,0.01,,---,0.03,0.00,VWS V14.01,2013-08-04 07:47:00,
2013-08-04 03:50:00,70.3,69.1,29.90,SW,231,0.0,1.0,96,0.00,,---,0.03,0.00,VWS V14.01,2013-08-04 07:50:00,
2013-08-04 03:52:00,70.5,69.6,29.90,SW,231,0.0,1.0,97,0.00,,---,0.03,0.00,VWS V14.01,2013-08-04 07:52:00,
2013-08-04 03:57:00,70.3,69.1,29.90,SW,231,0.0,1.0,96,0.00,,---,0.03,0.00,VWS V14.01,2013-08-04 07:57:00,
2013-08-04 04:00:00,70.2,69.0,29.90,WNW,288,0.0,3.0,96,0.00,,---,0.03,0.00,VWS V14.01,2013-08-04 08:00:00,
2013-08-04 04:02:00,70.2,69.0,29.89,SW,235,0.0,3.0,96,0.00,,---,0.03,0.00,VWS V14.01,2013-08-04 08:02:00,
2013-08-04 04:07:00,70.2,69.0,29.90,WNW,288,0.0,3.0,96,0.00,,---,0.03,0.00,VWS V14.01,2013-08-04 08:07:00,
2013-08-04 04:10:00,69.9,68.7,29.89,WNW,288,0.0,2.0,96,0.00,,---,0.03,0.00,VWS V14.01,2013-08-04 08:10:00,
2013-08-04 04:12:00,70.1,68.9,29.89,WNW,288,0.0,2.0,96,0.00,,---,0.03,0.00,VWS V14.01,2013-08-04 08:12:00,
2013-08-04 04:17:00,69.9,68.7,29.89,WNW,288,0.0,2.0,96,0.00,,---,0.03,0.00,VWS V14.01,2013-08-04 08:17:00,
2013-08-04 04:20:00,69.8,68.9,29.90,WNW,288,0.0,1.0,97,0.00,,---,0.03,0.00,VWS V14.01,2013-08-04 08:20:00,
2013-08-04 04:22:00,69.9,69.0,29.90,WNW,288,0.0,1.0,97,0.00,,---,0.03,0.00,VWS V14.01,2013-08-04 08:22:00,
2013-08-04 04:27:00,69.8,68.9,29.90,WNW,288,0.0,1.0,97,0.00,,---,0.03,0.00,VWS V14.01,2013-08-04 08:27:00,
2013-08-04 04:30:00,69.8,68.9,29.90,WSW,243,0.0,5.0,97,0.00,,---,0.03,0.00,VWS V14.01,2013-08-04 08:30:00,
2013-08-04 04:32:00,69.8,68.9,29.90,West,277,0.0,3.0,97,0.00,,---,0.03,0.00,VWS V14.01,2013-08-04 08:32:00,
2013-08-04 04:37:00,69.8,68.9,29.90,WSW,243,0.0,5.0,97,0.00,,---,0.03,0.00,VWS V14.01,2013-08-04 08:37:00,
2013-08-04 04:40:00,69.8,68.9,29.90,WSW,243,0.0,1.0,97,0.00,,---,0.03,0.00,VWS V14.01,2013-08-04 08:40:00,
2013-08-04 04:42:00,69.8,68.9,29.90,WSW,243,0.0,1.0,97,0.00,,---,0.03,0.00,VWS V14.01,2013-08-04 08:42:00,
2013-08-04 04:47:00,69.8,68.9,29.90,WSW,243,0.0,1.0,97,0.00,,---,0.03,0.00,VWS V14.01,2013-08-04 08:47:00,
2013-08-04 04:50:00,69.5,68.3,29.90,WSW,243,0.0,0.0,96,0.00,,---,0.03,0.00,VWS V14.01,2013-08-04 08:50:00,
2013-08-04 04:53:00,69.7,68.8,29.90,WSW,243,0.0,0.0,97,0.00,,---,0.03,0.00,VWS V14.01,2013-08-04 08:53:00,
2013-08-04 04:58:00,69.6,68.4,29.90,WSW,243,0.0,0.0,96,0.00,,---,0.03,0.00,VWS V14.01,2013-08-04 08:58:00,
2013-08-04 05:00:00,69.4,68.5,29.91,WSW,243,0.0,3.0,97,0.00,,---,0.03,0.00,VWS V14.01,2013-08-04 09:00:00,
2013-08-04 05:03:00,69.4,68.2,29.91,WSW,243,0.0,3.0,96,0.00,,---,0.03,0.00,VWS V14.01,2013-08-04 09:03:00,
2013-08-04 05:08:00,69.4,68.5,29.91,WSW,243,0.0,3.0,97,0.00,,---,0.03,0.00,VWS V14.01,2013-08-04 09:08:00,
2013-08-04 05:10:00,69.4,68.5,29.91,WSW,243,3.0,3.0,97,0.00,,---,0.03,0.00,VWS V14.01,2013-08-04 09:10:00,
2013-08-04 05:13:00,69.4,68.5,29.91,WSW,243,2.0,2.0,97,0.00,,---,0.03,0.00,VWS V14.01,2013-08-04 09:13:00,
2013-08-04 05:18:00,69.4,68.5,29.91,WSW,243,1.0,3.0,97,0.00,,---,0.03,0.00,VWS V14.01,2013-08-04 09:18:00,
2013-08-04 05:20:00,69.4,68.5,29.91,WSW,243,1.0,5.0,97,0.00,,---,0.03,0.00,VWS V14.01,2013-08-04 09:20:00,
2013-08-04 05:23:00,69.4,68.5,29.91,WSW,243,1.0,4.0,97,0.00,,---,0.03,0.00,VWS V14.01,2013-08-04 09:23:00,
2013-08-04 05:28:00,69.4,68.5,29.91,WSW,243,0.0,1.0,97,0.00,,---,0.03,0.00,VWS V14.01,2013-08-04 09:28:00,
2013-08-04 05:30:00,69.4,68.5,29.91,WSW,243,0.0,4.0,97,0.00,,---,0.03,0.00,VWS V14.01,2013-08-04 09:30:00,
2013-08-04 05:33:00,69.5,68.6,29.91,WSW,243,0.0,4.0,97,0.00,,---,0.03,0.00,VWS V14.01,2013-08-04 09:33:00,
2013-08-04 05:38:00,69.4,68.5,29.91,WSW,243,0.0,0.0,97,0.00,,---,0.03,0.00,VWS V14.01,2013-08-04 09:38:00,
2013-08-04 05:40:00,69.1,67.9,29.91,WSW,243,0.0,2.0,96,0.00,,---,0.03,0.00,VWS V14.01,2013-08-04 09:40:00,
2013-08-04 05:43:00,69.3,68.4,29.91,WSW,243,1.0,2.0,97,0.00,,---,0.03,0.00,VWS V14.01,2013-08-04 09:43:00,
2013-08-04 05:48:00,69.1,67.9,29.92,WSW,243,0.0,0.0,96,0.00,,---,0.03,0.00,VWS V14.01,2013-08-04 09:48:00,
2013-08-04 05:50:00,68.9,67.7,29.92,WSW,243,0.0,1.0,96,0.00,,---,0.03,0.00,VWS V14.01,2013-08-04 09:50:00,
2013-08-04 05:53:00,69.0,67.8,29.92,WSW,243,0.0,1.0,96,0.00,,---,0.03,0.00,VWS V14.01,2013-08-04 09:53:00,
2013-08-04 05:59:00,68.9,67.7,29.92,WSW,243,0.0,0.0,96,0.00,,---,0.03,0.00,VWS V14.01,2013-08-04 09:59:00,
2013-08-04 06:00:00,69.0,68.1,29.92,WSW,243,1.0,3.0,97,0.00,,---,0.03,0.00,VWS V14.01,2013-08-04 10:00:00,
2013-08-04 06:04:00,68.9,67.7,29.92,WSW,243,0.0,2.0,96,0.00,,---,0.03,0.00,VWS V14.01,2013-08-04 10:04:00,
2013-08-04 06:09:00,69.0,68.1,29.92,WSW,243,0.0,1.0,97,0.00,,---,0.03,0.00,VWS V14.01,2013-08-04 10:09:00,
2013-08-04 06:10:00,69.0,68.1,29.92,WSW,242,0.0,2.0,97,0.00,,---,0.03,0.00,VWS V14.01,2013-08-04 10:10:00,
2013-08-04 06:14:00,69.1,68.2,29.92,WSW,243,0.0,2.0,97,0.00,,---,0.03,0.00,VWS V14.01,2013-08-04 10:14:00,
2013-08-04 06:19:00,69.0,68.1,29.92,WSW,242,0.0,2.0,97,0.00,,---,0.03,0.00,VWS V14.01,2013-08-04 10:19:00,
2013-08-04 06:20:00,69.0,68.1,29.92,WSW,242,0.0,2.0,97,0.00,,---,0.03,0.00,VWS V14.01,2013-08-04 10:20:00,
2013-08-04 06:24:00,69.0,68.1,29.92,WSW,242,1.0,2.0,97,0.00,,---,0.03,0.00,VWS V14.01,2013-08-04 10:24:00,
2013-08-04 06:29:00,68.9,67.7,29.92,WSW,242,0.0,0.0,96,0.00,,---,0.03,0.00,VWS V14.01,2013-08-04 10:29:00,
2013-08-04 06:30:00,68.7,67.5,29.92,WSW,242,0.0,0.0,96,0.00,,---,0.03,0.00,VWS V14.01,2013-08-04 10:30:00,
2013-08-04 06:34:00,68.8,67.6,29.92,WSW,242,0.0,0.0,96,0.00,,---,0.03,0.00,VWS V14.01,2013-08-04 10:34:00,
2013-08-04 06:39:00,68.7,67.5,29.92,WSW,242,0.0,1.0,96,0.00,,---,0.03,0.00,VWS V14.01,2013-08-04 10:39:00,
2013-08-04 06:40:00,68.5,67.3,29.92,WSW,242,0.0,2.0,96,0.00,,---,0.03,7.00,VWS V14.01,2013-08-04 10:40:00,
2013-08-04 06:44:00,68.6,67.4,29.92,WSW,242,0.0,2.0,96,0.00,,---,0.03,5.00,VWS V14.01,2013-08-04 10:44:00,
2013-08-04 06:49:00,68.5,67.3,29.92,WSW,242,0.0,0.0,96,0.00,,---,0.03,7.00,VWS V14.01,2013-08-04 10:49:00,
2013-08-04 06:50:00,68.3,67.1,29.92,WSW,248,2.0,2.0,96,0.00,,---,0.03,12.00,VWS V14.01,2013-08-04 10:50:00,
2013-08-04 06:54:00,68.3,67.1,29.92,WSW,250,0.0,2.0,96,0.00,,---,0.03,11.00,VWS V14.01,2013-08-04 10:54:00,
2013-08-04 06:59:00,68.3,67.4,29.92,WSW,249,0.0,2.0,97,0.00,,---,0.03,14.00,VWS V14.01,2013-08-04 10:59:00,
2013-08-04 07:00:00,68.4,67.5,29.93,WSW,250,0.0,2.0,97,0.00,,---,0.03,19.00,VWS V14.01,2013-08-04 11:00:00,
2013-08-04 07:04:00,68.4,67.5,29.92,WSW,250,0.0,2.0,97,0.00,,---,0.03,16.00,VWS V14.01,2013-08-04 11:04:00,
2013-08-04 07:09:00,68.4,67.5,29.93,WSW,250,0.0,0.0,97,0.00,,---,0.03,19.00,VWS V14.01,2013-08-04 11:09:00,
2013-08-04 07:10:00,68.4,67.5,29.93,WSW,250,1.0,3.0,97,0.00,,---,0.03,25.00,VWS V14.01,2013-08-04 11:10:00,
2013-08-04 07:14:00,68.3,67.4,29.93,WSW,250,0.0,3.0,97,0.00,,---,0.03,21.00,VWS V14.01,2013-08-04 11:14:00,
2013-08-04 07:19:00,68.4,67.5,29.93,WSW,250,0.0,1.0,97,0.00,,---,0.03,28.00,VWS V14.01,2013-08-04 11:19:00,
2013-08-04 07:20:00,68.4,67.5,29.93,SSW,213,2.0,3.0,97,0.00,,---,0.03,25.00,VWS V14.01,2013-08-04 11:20:00,
2013-08-04 07:24:00,68.4,67.5,29.93,SSW,211,0.0,3.0,97,0.00,,---,0.03,26.00,VWS V14.01,2013-08-04 11:24:00,
2013-08-04 07:29:00,68.4,67.5,29.93,SSW,213,0.0,2.0,97,0.00,,---,0.03,25.00,VWS V14.01,2013-08-04 11:29:00,
2013-08-04 07:30:00,68.4,67.5,29.94,SSW,213,0.0,2.0,97,0.00,,---,0.03,44.00,VWS V14.01,2013-08-04 11:30:00,
2013-08-04 07:35:00,68.4,67.5,29.93,SSW,213,0.0,2.0,97,0.00,,---,0.03,30.00,VWS V14.01,2013-08-04 11:35:00,
2013-08-04 07:40:00,68.5,67.6,29.94,SSW,213,0.0,2.0,97,0.00,,---,0.03,49.00,VWS V14.01,2013-08-04 11:40:00,
2013-08-04 07:45:00,68.5,67.6,29.94,SSW,213,0.0,2.0,97,0.00,,---,0.03,40.00,VWS V14.01,2013-08-04 11:45:00,
2013-08-04 07:50:00,68.5,67.6,29.94,SSW,213,0.0,2.0,97,0.00,,---,0.03,40.00,VWS V14.01,2013-08-04 11:50:00,
2013-08-04 07:55:00,68.6,67.7,29.94,SSW,213,2.0,2.0,97,0.00,,---,0.03,47.00,VWS V14.01,2013-08-04 11:55:00,
2013-08-04 08:00:00,68.7,67.8,29.94,SSW,213,1.0,3.0,97,0.00,,---,0.03,62.00,VWS V14.01,2013-08-04 12:00:00,
2013-08-04 08:05:00,68.8,67.9,29.94,SSW,213,0.0,3.0,97,0.00,,---,0.03,86.00,VWS V14.01,2013-08-04 12:05:00,
2013-08-04 08:10:00,68.9,68.0,29.95,SW,235,4.0,4.0,97,0.00,,---,0.03,58.00,VWS V14.01,2013-08-04 12:10:00,
2013-08-04 08:15:00,68.9,68.0,29.95,WSW,237,1.0,5.0,97,0.00,,---,0.03,54.00,VWS V14.01,2013-08-04 12:15:00,
2013-08-04 08:20:00,69.1,68.2,29.95,SW,225,0.0,4.0,97,0.00,,---,0.03,120.00,VWS V14.01,2013-08-04 12:20:00,
2013-08-04 08:26:00,69.2,68.3,29.95,SW,234,4.0,4.0,97,0.00,,---,0.03,79.00,VWS V14.01,2013-08-04 12:26:00,
2013-08-04 08:30:00,69.3,68.4,29.95,SW,227,0.0,2.0,97,0.00,,---,0.03,60.00,VWS V14.01,2013-08-04 12:30:00,
2013-08-04 08:36:00,69.2,68.0,29.95,SW,227,0.0,5.0,96,0.00,,---,0.03,114.00,VWS V14.01,2013-08-04 12:36:00,
2013-08-04 08:40:00,69.7,68.5,29.96,SW,227,2.0,6.0,96,0.00,,---,0.03,97.00,VWS V14.01,2013-08-04 12:40:00,
2013-08-04 08:41:00,69.4,68.2,29.95,SW,227,0.0,1.0,96,0.00,,---,0.03,169.00,VWS V14.01,2013-08-04 12:41:00,
2013-08-04 08:46:00,69.7,68.5,29.96,SW,227,0.0,4.0,96,0.00,,---,0.03,132.00,VWS V14.01,2013-08-04 12:46:00,
2013-08-04 08:50:00,70.2,68.7,29.96,SW,227,0.0,3.0,95,0.00,,---,0.03,330.00,VWS V14.01,2013-08-04 12:50:00,
2013-08-04 08:51:00,69.8,68.3,29.96,SW,222,0.0,3.0,95,0.00,,---,0.03,132.00,VWS V14.01,2013-08-04 12:51:00,
2013-08-04 08:56:00,70.1,68.6,29.97,SW,227,1.0,3.0,95,0.00,,---,0.03,313.00,VWS V14.01,2013-08-04 12:56:00,
2013-08-04 09:00:00,70.8,68.4,29.96,SW,236,3.0,9.0,92,0.00,,---,0.03,100.00,VWS V14.01,2013-08-04 13:00:00,
2013-08-04 09:01:00,70.6,68.8,29.96,SW,227,0.0,3.0,94,0.00,,---,0.03,329.00,VWS V14.01,2013-08-04 13:01:00,
2013-08-04 09:07:00,70.7,68.6,29.96,SW,223,1.0,9.0,93,0.00,,---,0.03,288.00,VWS V14.01,2013-08-04 13:07:00,
2013-08-04 09:10:00,71.1,68.3,29.96,SW,231,0.0,3.0,91,0.00,,---,0.03,381.00,VWS V14.01,2013-08-04 13:10:00,
2013-08-04 09:12:00,70.9,68.8,29.96,SW,231,0.0,3.0,93,0.00,,---,0.03,160.00,VWS V14.01,2013-08-04 13:12:00,
2013-08-04 09:17:00,71.1,68.7,29.97,SW,225,1.0,3.0,92,0.00,,---,0.03,390.00,VWS V14.01,2013-08-04 13:17:00,
2013-08-04 09:20:00,71.9,68.8,29.97,SW,236,0.0,4.0,90,0.00,,---,0.03,531.00,VWS V14.01,2013-08-04 13:20:00,
2013-08-04 09:22:00,71.3,68.5,29.96,SW,233,0.0,4.0,91,0.00,,---,0.03,422.00,VWS V14.01,2013-08-04 13:22:00,
2013-08-04 09:27:00,71.8,69.0,29.97,SW,236,0.0,4.0,91,0.00,,---,0.03,478.00,VWS V14.01,2013-08-04 13:27:00,
2013-08-04 09:30:00,72.9,69.8,29.96,NNE,25,0.0,3.0,90,0.00,,---,0.03,534.00,VWS V14.01,2013-08-04 13:30:00,
2013-08-04 09:32:00,72.2,68.8,29.97,NNE,23,0.0,2.0,89,0.00,,---,0.03,536.00,VWS V14.01,2013-08-04 13:32:00,
2013-08-04 09:37:00,72.8,69.4,29.96,NNE,25,0.0,3.0,89,0.00,,---,0.03,513.00,VWS V14.01,2013-08-04 13:37:00,
2013-08-04 09:40:00,72.9,68.8,29.96,SW,234,0.0,4.0,87,0.00,,---,0.03,541.00,VWS V14.01,2013-08-04 13:40:00,
2013-08-04 09:41:00,73.0,69.2,29.96,SW,234,0.0,0.0,88,0.00,,---,0.03,541.00,VWS V14.01,2013-08-04 13:41:00,
2013-08-04 09:42:00,73.3,69.5,29.97,WSW,252,2.0,2.0,88,0.00,,---,0.03,139.00,VWS V14.01,2013-08-04 13:42:00,
2013-08-04 09:47:00,73.0,68.9,29.96,SW,234,0.0,4.0,87,0.00,,---,0.03,125.00,VWS V14.01,2013-08-04 13:47:00,
2013-08-04 09:50:00,73.0,68.6,29.97,SW,235,0.0,1.0,86,0.00,,---,0.03,128.00,VWS V14.01,2013-08-04 13:50:00,
2013-08-04 09:52:00,73.1,69.0,29.97,SW,234,0.0,1.0,87,0.00,,---,0.03,394.00,VWS V14.01,2013-08-04 13:52:00,
2013-08-04 09:58:00,73.1,68.7,29.97,SW,235,1.0,1.0,86,0.00,,---,0.03,116.00,VWS V14.01,2013-08-04 13:58:00,
2013-08-04 10:00:00,73.4,68.6,29.97,NW,319,0.0,2.0,85,0.00,,---,0.03,536.00,VWS V14.01,2013-08-04 14:00:00,
2013-08-04 10:03:00,73.0,68.6,29.97,SW,235,0.0,1.0,86,0.00,,---,0.03,640.00,VWS V14.01,2013-08-04 14:03:00,
2013-08-04 10:07:00,73.4,68.6,29.97,NW,319,0.0,2.0,85,0.00,,---,0.03,536.00,VWS V14.01,2013-08-04 14:07:00,
2013-08-04 10:10:00,74.6,69.1,29.96,WSW,248,0.0,4.0,83,0.00,,---,0.03,708.00,VWS V14.01,2013-08-04 14:10:00,
2013-08-04 10:13:00,74.1,69.3,29.96,WSW,249,0.0,3.0,85,0.00,,---,0.03,635.00,VWS V14.01,2013-08-04 14:13:00,
2013-08-04 10:18:00,74.6,69.1,29.96,WSW,248,0.0,4.0,83,0.00,,---,0.03,708.00,VWS V14.01,2013-08-04 14:18:00,
2013-08-04 10:20:00,74.9,67.9,29.96,WSW,249,0.0,4.0,79,0.00,,---,0.03,207.00,VWS V14.01,2013-08-04 14:20:00,
2013-08-04 10:23:00,75.0,69.5,29.96,WSW,249,0.0,4.0,83,0.00,,---,0.03,772.00,VWS V14.01,2013-08-04 14:23:00,
2013-08-04 10:28:00,74.9,67.9,29.96,WSW,249,0.0,4.0,79,0.00,,---,0.03,207.00,VWS V14.01,2013-08-04 14:28:00,
2013-08-04 10:30:00,76.1,69.1,29.96,NE,49,0.0,5.0,79,0.00,,---,0.03,800.00,VWS V14.01,2013-08-04 14:30:00,
2013-08-04 10:33:00,75.0,69.5,29.96,WSW,249,0.0,1.0,83,0.00,,---,0.03,768.00,VWS V14.01,2013-08-04 14:33:00,
2013-08-04 10:38:00,76.1,69.1,29.96,NE,49,0.0,5.0,79,0.00,,---,0.03,800.00,VWS V14.01,2013-08-04 14:38:00,
2013-08-04 10:40:00,76.5,68.8,29.96,SW,228,0.0,5.0,77,0.00,,---,0.03,116.00,VWS V14.01,2013-08-04 14:40:00,
2013-08-04 10:43:00,76.6,70.0,29.96,NE,49,0.0,2.0,80,0.00,,---,0.03,434.00,VWS V14.01,2013-08-04 14:43:00,
2013-08-04 10:48:00,76.4,68.7,29.96,SW,228,3.0,3.0,77,0.00,,---,0.03,116.00,VWS V14.01,2013-08-04 14:48:00,
2013-08-04 10:50:00,74.5,68.7,29.96,SW,232,0.0,5.0,82,0.00,,---,0.03,225.00,VWS V14.01,2013-08-04 14:50:00,
2013-08-04 10:54:00,75.2,68.2,29.96,SW,232,1.0,5.0,79,0.00,,---,0.03,160.00,VWS V14.01,2013-08-04 14:54:00,
2013-08-04 10:59:00,74.4,67.8,29.96,SW,232,0.0,1.0,80,0.00,,---,0.03,220.00,VWS V14.01,2013-08-04 14:59:00,
2013-08-04 11:00:00,74.5,67.6,29.97,SW,232,0.0,2.0,79,0.00,,---,0.03,879.00,VWS V14.01,2013-08-04 15:00:00,
2013-08-04 11:04:00,74.3,68.1,29.97,SW,232,0.0,2.0,81,0.00,,---,0.03,250.00,VWS V14.01,2013-08-04 15:04:00,
2013-08-04 11:09:00,74.6,68.4,29.97,SW,232,0.0,0.0,81,0.00,,---,0.03,891.00,VWS V14.01,2013-08-04 15:09:00,
2013-08-04 11:10:00,75.1,67.8,29.97,WSW,240,3.0,10.0,78,0.00,,---,0.03,879.00,VWS V14.01,2013-08-04 15:10:00,
2013-08-04 11:14:00,75.0,66.2,29.98,WNW,288,0.0,10.0,74,0.00,,---,0.03,156.00,VWS V14.01,2013-08-04 15:14:00,
2013-08-04 11:19:00,75.1,66.2,29.97,WSW,240,0.0,3.0,74,0.00,,---,0.03,888.00,VWS V14.01,2013-08-04 15:19:00,
2013-08-04 11:20:00,76.2,66.9,29.98,NE,43,0.0,6.0,73,0.00,,---,0.03,134.00,VWS V14.01,2013-08-04 15:20:00,
2013-08-04 11:24:00,75.9,66.6,29.98,NNE,21,1.0,6.0,73,0.00,,---,0.03,900.00,VWS V14.01,2013-08-04 15:24:00,
2013-08-04 11:29:00,76.2,66.5,29.98,NE,43,0.0,0.0,72,0.00,,---,0.03,851.00,VWS V14.01,2013-08-04 15:29:00,
2013-08-04 11:30:00,77.8,68.5,29.98,NE,34,1.0,1.0,73,0.00,,---,0.03,928.00,VWS V14.01,2013-08-04 15:30:00,
2013-08-04 11:34:00,77.0,68.9,29.98,NE,43,1.0,1.0,76,0.00,,---,0.03,904.00,VWS V14.01,2013-08-04 15:34:00,
2013-08-04 11:40:00,78.0,67.0,29.97,NE,40,0.0,3.0,69,0.00,,---,0.03,844.00,VWS V14.01,2013-08-04 15:40:00,
2013-08-04 11:45:00,77.9,65.6,29.97,SE,127,1.0,6.0,66,0.00,,---,0.03,185.00,VWS V14.01,2013-08-04 15:45:00,
2013-08-04 11:50:00,77.1,65.7,29.98,South,184,0.0,0.0,68,0.00,,---,0.03,137.00,VWS V14.01,2013-08-04 15:50:00,
2013-08-04 11:55:00,77.1,65.3,29.98,South,184,0.0,0.0,67,0.00,,---,0.03,981.00,VWS V14.01,2013-08-04 15:55:00,
2013-08-04 12:00:00,77.8,66.0,29.97,NE,34,2.0,3.0,67,0.00,,---,0.03,954.00,VWS V14.01,2013-08-04 16:00:00,
2013-08-04 12:05:00,78.0,66.6,29.97,WSW,254,0.0,4.0,68,0.00,,---,0.03,1004.00,VWS V14.01,2013-08-04 16:05:00,
2013-08-04 12:10:00,77.8,67.2,29.97,South,182,2.0,3.0,70,0.00,,---,0.03,190.00,VWS V14.01,2013-08-04 16:10:00,
2013-08-04 12:15:00,77.5,68.2,29.97,SW,217,0.0,4.0,73,0.00,,---,0.03,960.00,VWS V14.01,2013-08-04 16:15:00,
2013-08-04 12:20:00,77.5,69.0,29.97,SSW,212,1.0,2.0,75,0.00,,---,0.03,914.00,VWS V14.01,2013-08-04 16:20:00,
2013-08-04 12:25:00,77.7,67.1,29.96,WSW,249,0.0,5.0,70,0.00,,---,0.03,970.00,VWS V14.01,2013-08-04 16:25:00,
2013-08-04 12:30:00,78.8,66.5,29.96,NE,54,0.0,3.0,66,0.00,,---,0.03,313.00,VWS V14.01,2013-08-04 16:30:00,
2013-08-04 12:31:00,78.2,66.4,29.96,NE,54,1.0,3.0,67,0.00,,---,0.03,1013.00,VWS V14.01,2013-08-04 16:31:00,
2013-08-04 12:36:00,78.6,65.4,29.96,NE,54,0.0,3.0,64,0.00,,---,0.03,392.00,VWS V14.01,2013-08-04 16:36:00,
2013-08-04 12:40:00,78.9,65.2,29.96,NNE,28,1.0,6.0,63,0.00,,---,0.03,1044.00,VWS V14.01,2013-08-04 16:40:00,
2013-08-04 12:41:00,78.9,66.2,29.96,South,190,0.0,4.0,65,0.00,,---,0.03,1132.00,VWS V14.01,2013-08-04 16:41:00,
2013-08-04 12:46:00,78.9,64.8,29.96,ENE,61,0.0,6.0,62,0.00,,---,0.03,1074.00,VWS V14.01,2013-08-04 16:46:00,
2013-08-04 12:50:00,79.4,65.3,29.96,WSW,246,1.0,8.0,62,0.00,,---,0.03,1002.00,VWS V14.01,2013-08-04 16:50:00,
2013-08-04 12:51:00,79.1,65.9,29.96,NE,46,3.0,4.0,64,0.00,,---,0.03,1034.00,VWS V14.01,2013-08-04 16:51:00,
2013-08-04 12:56:00,79.4,65.7,29.96,SW,232,0.0,5.0,63,0.00,,---,0.03,1018.00,VWS V14.01,2013-08-04 16:56:00,
2013-08-04 13:00:00,79.7,66.0,29.95,SW,223,3.0,6.0,63,0.00,,---,0.03,577.00,VWS V14.01,2013-08-04 17:00:00,
2013-08-04 13:02:00,79.3,65.2,29.95,WSW,246,0.0,4.0,62,0.00,,---,0.03,997.00,VWS V14.01,2013-08-04 17:02:00,
2013-08-04 13:07:00,79.5,64.9,29.95,NNW,328,1.0,5.0,61,0.00,,---,0.03,1090.00,VWS V14.01,2013-08-04 17:07:00,
2013-08-04 13:10:00,79.5,64.9,29.95,West,263,0.0,7.0,61,0.00,,---,0.03,1063.00,VWS V14.01,2013-08-04 17:10:00,
2013-08-04 13:12:00,79.6,65.4,29.96,WSW,240,0.0,6.0,62,0.00,,---,0.03,577.00,VWS V14.01,2013-08-04 17:12:00,
2013-08-04 13:16:00,79.5,65.3,29.95,SW,232,0.0,6.0,62,0.00,,---,0.03,1093.00,VWS V14.01,2013-08-04 17:16:00,
2013-08-04 13:20:00,78.8,64.2,29.95,WNW,295,0.0,7.0,61,0.00,,---,0.03,1042.00,VWS V14.01,2013-08-04 17:20:00,
2013-08-04 13:22:00,79.3,64.2,29.95,WSW,237,0.0,7.0,60,0.00,,---,0.03,167.00,VWS V14.01,2013-08-04 17:22:00,
2013-08-04 13:27:00,78.9,64.3,29.95,WNW,300,0.0,7.0,61,0.00,,---,0.03,1021.00,VWS V14.01,2013-08-04 17:27:00,
2013-08-04 13:30:00,79.1,65.0,29.95,SW,232,0.0,13.0,62,0.00,,---,0.03,1013.00,VWS V14.01,2013-08-04 17:30:00,
2013-08-04 13:32:00,78.9,64.8,29.95,SW,214,7.0,13.0,62,0.00,,---,0.03,1034.00,VWS V14.01,2013-08-04 17:32:00,
2013-08-04 13:37:00,79.0,63.9,29.95,SW,232,0.0,13.0,60,0.00,,---,0.03,1034.00,VWS V14.01,2013-08-04 17:37:00,
2013-08-04 13:40:00,79.4,62.8,29.95,SSW,211,0.0,12.0,57,0.00,,---,0.03,1018.00,VWS V14.01,2013-08-04 17:40:00,
2013-08-04 13:42:00,79.6,64.0,29.95,SW,232,7.0,9.0,59,0.00,,---,0.03,1053.00,VWS V14.01,2013-08-04 17:42:00,
2013-08-04 13:47:00,79.3,65.2,29.95,WNW,288,2.0,12.0,62,0.00,,---,0.03,1023.00,VWS V14.01,2013-08-04 17:47:00,
2013-08-04 13:50:00,79.6,65.0,29.95,SSW,202,1.0,7.0,61,0.00,,---,0.03,1072.00,VWS V14.01,2013-08-04 17:50:00,
2013-08-04 13:52:00,79.4,63.8,29.95,SSW,206,0.0,7.0,59,0.00,,---,0.03,1034.00,VWS V14.01,2013-08-04 17:52:00,
2013-08-04 13:57:00,79.5,64.4,29.95,SSW,199,0.0,7.0,60,0.00,,---,0.03,1069.00,VWS V14.01,2013-08-04 17:57:00,
2013-08-04 14:00:00,80.2,62.1,29.95,WNW,292,1.0,7.0,54,0.00,,---,0.03,295.00,VWS V14.01,2013-08-04 18:00:00,
2013-08-04 14:02:00,80.2,64.1,29.95,WNW,292,3.0,7.0,58,0.00,,---,0.03,1107.00,VWS V14.01,2013-08-04 18:02:00,
2013-08-04 14:07:00,80.3,62.7,29.95,WNW,292,0.0,7.0,55,0.00,,---,0.03,295.00,VWS V14.01,2013-08-04 18:07:00,
2013-08-04 14:10:00,80.8,66.6,29.95,SW,231,5.0,5.0,62,0.00,,---,0.03,1097.00,VWS V14.01,2013-08-04 18:10:00,
2013-08-04 14:12:00,80.3,62.7,29.95,WNW,293,0.0,1.0,55,0.00,,---,0.03,788.00,VWS V14.01,2013-08-04 18:12:00,
2013-08-04 14:17:00,80.7,66.5,29.95,South,172,1.0,1.0,62,0.00,,---,0.03,1097.00,VWS V14.01,2013-08-04 18:17:00,
2013-08-04 14:20:00,80.9,63.2,29.95,SE,128,0.0,6.0,55,0.00,,---,0.03,993.00,VWS V14.01,2013-08-04 18:20:00,
2013-08-04 14:22:00,80.7,64.6,29.95,West,278,0.0,6.0,58,0.00,,---,0.03,1079.00,VWS V14.01,2013-08-04 18:22:00,
2013-08-04 14:27:00,80.9,63.2,29.95,North,5,1.0,6.0,55,0.00,,---,0.03,1079.00,VWS V14.01,2013-08-04 18:27:00,
2013-08-04 14:30:00,81.4,64.2,29.95,WSW,254,1.0,7.0,56,0.00,,---,0.03,993.00,VWS V14.01,2013-08-04 18:30:00,
2013-08-04 14:32:00,81.2,65.0,29.95,ENE,59,1.0,1.0,58,0.00,,---,0.03,1051.00,VWS V14.01,2013-08-04 18:32:00,
2013-08-04 14:37:00,81.4,64.7,29.95,WSW,254,2.0,7.0,57,0.00,,---,0.03,993.00,VWS V14.01,2013-08-04 18:37:00,
2013-08-04 14:40:00,81.3,64.1,29.94,WSW,249,1.0,5.0,56,0.00,,---,0.03,1060.00,VWS V14.01,2013-08-04 18:40:00,
2013-08-04 14:42:00,81.2,64.0,29.95,WSW,249,0.0,5.0,56,0.00,,---,0.03,1107.00,VWS V14.01,2013-08-04 18:42:00,
2013-08-04 14:47:00,81.3,63.6,29.94,WSW,250,1.0,5.0,55,0.00,,---,0.03,1060.00,VWS V14.01,2013-08-04 18:47:00,
2013-08-04 14:50:00,82.2,64.4,29.94,NE,40,0.0,5.0,55,0.00,,---,0.03,1025.00,VWS V14.01,2013-08-04 18:50:00,
2013-08-04 14:53:00,81.6,65.9,29.94,WNW,299,1.0,5.0,59,0.00,,---,0.03,1041.00,VWS V14.01,2013-08-04 18:53:00,
2013-08-04 14:58:00,82.2,64.4,29.94,NE,40,0.0,5.0,55,0.00,,---,0.03,1032.00,VWS V14.01,2013-08-04 18:58:00,
2013-08-04 15:00:00,82.8,65.0,29.94,North,360,0.0,3.0,55,0.00,,---,0.03,1009.00,VWS V14.01,2013-08-04 19:00:00,
2013-08-04 15:03:00,82.8,66.0,29.94,SW,230,0.0,3.0,57,0.00,,---,0.03,962.00,VWS V14.01,2013-08-04 19:03:00,
2013-08-04 15:08:00,82.8,65.0,29.94,North,360,0.0,3.0,55,0.00,,---,0.03,1000.00,VWS V14.01,2013-08-04 19:08:00,
2013-08-04 15:10:00,83.5,64.0,29.94,ESE,119,0.0,4.0,52,0.00,,---,0.03,770.00,VWS V14.01,2013-08-04 19:10:00,
2013-08-04 15:13:00,83.2,65.4,29.94,NNW,340,0.0,4.0,55,0.00,,---,0.03,998.00,VWS V14.01,2013-08-04 19:13:00,
2013-08-04 15:18:00,83.5,64.0,29.94,ESE,119,0.0,4.0,52,0.00,,---,0.03,770.00,VWS V14.01,2013-08-04 19:18:00,
2013-08-04 15:20:00,83.4,64.5,29.93,SE,144,4.0,4.0,53,0.00,,---,0.03,965.00,VWS V14.01,2013-08-04 19:20:00,
2013-08-04 15:23:00,83.3,63.9,29.94,NNE,33,0.0,2.0,52,0.00,,---,0.03,974.00,VWS V14.01,2013-08-04 19:23:00,
2013-08-04 15:28:00,83.4,65.6,29.93,SSE,166,3.0,5.0,55,0.00,,---,0.03,965.00,VWS V14.01,2013-08-04 19:28:00,
2013-08-04 15:30:00,83.2,63.8,29.93,SSW,205,5.0,6.0,52,0.00,,---,0.03,800.00,VWS V14.01,2013-08-04 19:30:00,
2013-08-04 15:33:00,83.5,64.0,29.93,SSW,208,2.0,5.0,52,0.00,,---,0.03,571.00,VWS V14.01,2013-08-04 19:33:00,
2013-08-04 15:38:00,83.2,64.8,29.93,SW,221,1.0,5.0,54,0.00,,---,0.03,800.00,VWS V14.01,2013-08-04 19:38:00,
2013-08-04 15:40:00,82.0,62.1,29.93,SW,236,0.0,6.0,51,0.00,,---,0.03,325.00,VWS V14.01,2013-08-04 19:40:00,
2013-08-04 15:43:00,82.9,62.4,29.93,WSW,250,0.0,6.0,50,0.00,,---,0.03,898.00,VWS V14.01,2013-08-04 19:43:00,
2013-08-04 15:48:00,81.8,61.9,29.93,SW,236,0.0,1.0,51,0.00,,---,0.03,325.00,VWS V14.01,2013-08-04 19:48:00,
2013-08-04 15:50:00,80.9,64.2,29.93,WSW,238,0.0,3.0,57,0.00,,---,0.03,703.00,VWS V14.01,2013-08-04 19:50:00,
2013-08-04 15:54:00,80.9,62.7,29.93,SW,236,0.0,3.0,54,0.00,,---,0.03,965.00,VWS V14.01,2013-08-04 19:54:00,
2013-08-04 15:59:00,81.0,64.3,29.93,WSW,238,0.0,0.0,57,0.00,,---,0.03,919.00,VWS V14.01,2013-08-04 19:59:00,
2013-08-04 16:00:00,82.2,63.9,29.93,WSW,238,0.0,3.0,54,0.00,,---,0.03,724.00,VWS V14.01,2013-08-04 20:00:00,
2013-08-04 16:04:00,81.6,64.4,29.92,WSW,238,0.0,3.0,56,0.00,,---,0.03,868.00,VWS V14.01,2013-08-04 20:04:00,
2013-08-04 16:08:00,82.3,63.5,29.93,SW,235,1.0,3.0,53,0.00,,---,0.03,236.00,VWS V14.01,2013-08-04 20:08:00,
2013-08-04 16:10:00,81.3,64.1,29.92,SW,224,0.0,5.0,56,0.00,,---,0.03,253.00,VWS V14.01,2013-08-04 20:10:00,
2013-08-04 16:13:00,82.1,64.3,29.92,WSW,242,3.0,4.0,55,0.00,,---,0.03,223.00,VWS V14.01,2013-08-04 20:13:00,
2013-08-04 16:18:00,81.2,63.5,29.92,SW,224,0.0,0.0,55,0.00,,---,0.03,258.00,VWS V14.01,2013-08-04 20:18:00,
2013-08-04 16:20:00,80.7,65.1,29.92,SW,224,0.0,1.0,59,0.00,,---,0.03,877.00,VWS V14.01,2013-08-04 20:20:00,
2013-08-04 16:24:00,80.6,65.9,29.92,SW,224,0.0,1.0,61,0.00,,---,0.03,292.00,VWS V14.01,2013-08-04 20:24:00,
2013-08-04 16:29:00,80.8,66.1,29.92,SW,224,0.0,0.0,61,0.00,,---,0.03,877.00,VWS V14.01,2013-08-04 20:29:00,
2013-08-04 16:30:00,81.6,63.9,29.92,NW,320,0.0,3.0,55,0.00,,---,0.03,756.00,VWS V14.01,2013-08-04 20:30:00,
2013-08-04 16:34:00,81.4,63.7,29.92,NW,319,0.0,3.0,55,0.00,,---,0.03,628.00,VWS V14.01,2013-08-04 20:34:00,
2013-08-04 16:39:00,81.7,62.9,29.92,NW,319,1.0,1.0,53,0.00,,---,0.03,492.00,VWS V14.01,2013-08-04 20:39:00,
2013-08-04 16:40:00,81.4,64.2,29.93,SW,225,3.0,7.0,56,0.00,,---,0.03,536.00,VWS V14.01,2013-08-04 20:40:00,
2013-08-04 16:44:00,81.8,63.5,29.93,SW,226,1.0,7.0,54,0.00,,---,0.03,745.00,VWS V14.01,2013-08-04 20:44:00,
2013-08-04 16:49:00,81.2,63.5,29.93,SW,225,0.0,3.0,55,0.00,,---,0.03,763.00,VWS V14.01,2013-08-04 20:49:00,
2013-08-04 16:50:00,80.8,65.6,29.92,SW,226,2.0,4.0,60,0.00,,---,0.03,666.00,VWS V14.01,2013-08-04 20:50:00,
2013-08-04 16:54:00,80.8,64.7,29.92,SW,227,2.0,4.0,58,0.00,,---,0.03,684.00,VWS V14.01,2013-08-04 20:54:00,
2013-08-04 17:00:00,80.8,65.6,29.92,South,175,1.0,3.0,60,0.00,,---,0.03,666.00,VWS V14.01,2013-08-04 21:00:00,
2013-08-04 17:05:00,80.7,64.1,29.92,SW,230,1.0,4.0,57,0.00,,---,0.03,624.00,VWS V14.01,2013-08-04 21:05:00,
2013-08-04 17:10:00,80.9,65.2,29.92,SW,234,3.0,4.0,59,0.00,,---,0.03,663.00,VWS V14.01,2013-08-04 21:10:00,
2013-08-04 17:15:00,80.7,65.5,29.92,SSW,212,0.0,5.0,60,0.00,,---,0.03,436.00,VWS V14.01,2013-08-04 21:15:00,
2013-08-04 17:20:00,80.5,64.9,29.92,SW,219,3.0,4.0,59,0.00,,---,0.03,387.00,VWS V14.01,2013-08-04 21:20:00,
2013-08-04 17:25:00,80.3,64.7,29.92,SW,215,1.0,4.0,59,0.00,,---,0.03,531.00,VWS V14.01,2013-08-04 21:25:00,
2013-08-04 17:30:00,80.3,65.2,29.92,SW,219,0.0,1.0,60,0.00,,---,0.03,359.00,VWS V14.01,2013-08-04 21:30:00,
2013-08-04 17:34:00,80.3,65.6,29.92,SW,219,0.0,1.0,61,0.00,,---,0.03,374.00,VWS V14.01,2013-08-04 21:34:00,
2013-08-04 17:40:00,80.2,65.1,29.92,SW,219,1.0,2.0,60,0.00,,---,0.03,278.00,VWS V14.01,2013-08-04 21:40:00,
2013-08-04 17:45:00,79.8,64.2,29.92,SW,219,0.0,4.0,59,0.00,,---,0.03,232.00,VWS V14.01,2013-08-04 21:45:00,
2013-08-04 17:50:00,79.5,64.4,29.92,SW,219,0.0,2.0,60,0.00,,---,0.03,311.00,VWS V14.01,2013-08-04 21:50:00,
2013-08-04 17:52:00,79.4,67.5,29.92,SW,219,0.0,2.0,67,0.00,,---,0.03,227.00,VWS V14.01,2013-08-04 21:52:00,
2013-08-04 17:57:00,79.1,65.0,29.92,SW,219,0.0,2.0,62,0.00,,---,0.03,338.00,VWS V14.01,2013-08-04 21:57:00,
2013-08-04 18:00:00,79.1,65.4,29.92,WSW,242,0.0,3.0,63,0.00,,---,0.03,373.00,VWS V14.01,2013-08-04 22:00:00,
2013-08-04 18:02:00,79.0,65.3,29.92,SW,219,0.0,2.0,63,0.00,,---,0.03,350.00,VWS V14.01,2013-08-04 22:02:00,
2013-08-04 18:07:00,79.1,65.9,29.92,SW,226,0.0,3.0,64,0.00,,---,0.03,425.00,VWS V14.01,2013-08-04 22:07:00,
2013-08-04 18:10:00,80.1,65.0,29.92,SW,230,0.0,3.0,60,0.00,,---,0.03,338.00,VWS V14.01,2013-08-04 22:10:00,
2013-08-04 18:12:00,79.5,66.7,29.92,WSW,242,0.0,1.0,65,0.00,,---,0.03,508.00,VWS V14.01,2013-08-04 22:12:00,
2013-08-04 18:17:00,80.1,66.8,29.92,SW,230,0.0,3.0,64,0.00,,---,0.03,399.00,VWS V14.01,2013-08-04 22:17:00,
2013-08-04 18:20:00,79.8,65.2,29.91,WSW,242,0.0,6.0,61,0.00,,---,0.03,308.00,VWS V14.01,2013-08-04 22:20:00,
2013-08-04 18:22:00,80.2,66.9,29.91,SW,230,0.0,1.0,64,0.00,,---,0.03,156.00,VWS V14.01,2013-08-04 22:22:00,
2013-08-04 18:27:00,79.8,65.2,29.91,WSW,242,0.0,6.0,61,0.00,,---,0.03,362.00,VWS V14.01,2013-08-04 22:27:00,
2013-08-04 18:30:00,79.5,66.7,29.91,WSW,242,0.0,3.0,65,0.00,,---,0.03,213.00,VWS V14.01,2013-08-04 22:30:00,
2013-08-04 18:32:00,79.7,66.5,29.91,WSW,242,0.0,2.0,64,0.00,,---,0.03,396.00,VWS V14.01,2013-08-04 22:32:00,
2013-08-04 18:38:00,79.5,65.3,29.91,WSW,242,1.0,3.0,62,0.00,,---,0.03,220.00,VWS V14.01,2013-08-04 22:38:00,
2013-08-04 18:40:00,79.0,65.8,29.91,WSW,242,0.0,4.0,64,0.00,,---,0.03,264.00,VWS V14.01,2013-08-04 22:40:00,
2013-08-04 18:43:00,79.3,67.0,29.91,WSW,242,0.0,2.0,66,0.00,,---,0.03,237.00,VWS V14.01,2013-08-04 22:43:00,
2013-08-04 18:48:00,79.0,65.3,29.91,WSW,242,0.0,4.0,63,0.00,,---,0.03,264.00,VWS V14.01,2013-08-04 22:48:00,
2013-08-04 18:50:00,78.3,65.6,29.91,WSW,242,1.0,3.0,65,0.00,,---,0.03,139.00,VWS V14.01,2013-08-04 22:50:00,
2013-08-04 18:53:00,78.8,66.9,29.91,WSW,242,0.0,3.0,67,0.00,,---,0.03,172.00,VWS V14.01,2013-08-04 22:53:00,
2013-08-04 18:58:00,78.3,65.6,29.91,WSW,242,2.0,3.0,65,0.00,,---,0.03,139.00,VWS V14.01,2013-08-04 22:58:00,
2013-08-04 19:00:00,76.9,65.1,29.91,WSW,237,0.0,4.0,67,0.00,,---,0.03,69.00,VWS V14.01,2013-08-04 23:00:00,
2013-08-04 19:03:00,77.6,65.8,29.91,WSW,242,2.0,4.0,67,0.00,,---,0.03,90.00,VWS V14.01,2013-08-04 23:03:00,
2013-08-04 19:08:00,77.0,65.2,29.91,WSW,242,0.0,4.0,67,0.00,,---,0.03,69.00,VWS V14.01,2013-08-04 23:08:00,
2013-08-04 19:10:00,76.1,66.0,29.92,WSW,242,0.0,1.0,71,0.00,,---,0.03,98.00,VWS V14.01,2013-08-04 23:10:00,
2013-08-04 19:13:00,76.4,65.9,29.91,WSW,242,0.0,1.0,70,0.00,,---,0.03,113.00,VWS V14.01,2013-08-04 23:13:00,
2013-08-04 19:18:00,76.1,66.0,29.92,WSW,242,0.0,1.0,71,0.00,,---,0.03,98.00,VWS V14.01,2013-08-04 23:18:00,
2013-08-04 19:20:00,75.3,64.8,29.92,WSW,242,0.0,1.0,70,0.00,,---,0.03,44.00,VWS V14.01,2013-08-04 23:20:00,
2013-08-04 19:23:00,75.8,64.9,29.92,WSW,242,0.0,1.0,69,0.00,,---,0.03,49.00,VWS V14.01,2013-08-04 23:23:00,
2013-08-04 19:28:00,75.3,64.8,29.92,WSW,242,0.0,1.0,70,0.00,,---,0.03,44.00,VWS V14.01,2013-08-04 23:28:00,
2013-08-04 19:30:00,74.1,64.1,29.92,WSW,242,0.0,1.0,71,0.00,,---,0.03,46.00,VWS V14.01,2013-08-04 23:30:00,
2013-08-04 19:33:00,74.7,64.3,29.91,WSW,242,0.0,1.0,70,0.00,,---,0.03,44.00,VWS V14.01,2013-08-04 23:33:00,
2013-08-04 19:38:00,74.2,64.2,29.92,WSW,242,0.0,1.0,71,0.00,,---,0.03,46.00,VWS V14.01,2013-08-04 23:38:00,
2013-08-04 19:40:00,73.3,63.7,29.92,WSW,242,0.0,0.0,72,0.00,,---,0.03,42.00,VWS V14.01,2013-08-04 23:40:00,
2013-08-04 19:43:00,73.7,63.3,29.92,WSW,242,0.0,0.0,70,0.00,,---,0.03,42.00,VWS V14.01,2013-08-04 23:43:00,
2013-08-04 19:48:00,73.3,63.7,29.92,WSW,242,0.0,0.0,72,0.00,,---,0.03,42.00,VWS V14.01,2013-08-04 23:48:00,
2013-08-04 19:50:00,72.7,63.2,29.92,WSW,242,0.0,1.0,72,0.00,,---,0.03,30.00,VWS V14.01,2013-08-04 23:50:00,
2013-08-04 19:53:00,73.0,63.5,29.92,WSW,242,0.0,0.0,72,0.00,,---,0.03,35.00,VWS V14.01,2013-08-04 23:53:00,
2013-08-04 19:58:00,72.7,63.2,29.92,WSW,242,0.0,0.0,72,0.00,,---,0.03,30.00,VWS V14.01,2013-08-04 23:58:00,
2013-08-04 20:00:00,72.2,63.1,29.92,WSW,242,0.0,0.0,73,0.00,,---,0.03,21.00,VWS V14.01,2013-08-05 00:00:00,
2013-08-04 20:04:00,72.4,63.3,29.92,WSW,242,0.0,0.0,73,0.00,,---,0.03,25.00,VWS V14.01,2013-08-05 00:04:00,
2013-08-04 20:09:00,72.2,63.1,29.92,WSW,242,0.0,0.0,73,0.00,,---,0.03,21.00,VWS V14.01,2013-08-05 00:09:00,
2013-08-04 20:10:00,71.8,63.1,29.92,WSW,242,0.0,0.0,74,0.00,,---,0.03,9.00,VWS V14.01,2013-08-05 00:10:00,
2013-08-04 20:14:00,71.9,62.8,29.92,WSW,242,0.0,0.0,73,0.00,,---,0.03,14.00,VWS V14.01,2013-08-05 00:14:00,
2013-08-04 20:19:00,71.7,62.6,29.92,WSW,242,0.0,0.0,73,0.00,,---,0.03,9.00,VWS V14.01,2013-08-05 00:19:00,
2013-08-04 20:20:00,71.6,62.9,29.93,WSW,242,0.0,1.0,74,0.00,,---,0.03,0.00,VWS V14.01,2013-08-05 00:20:00,
2013-08-04 20:24:00,71.7,63.0,29.93,WSW,242,0.0,1.0,74,0.00,,---,0.03,5.00,VWS V14.01,2013-08-05 00:24:00,
2013-08-04 20:29:00,71.6,62.5,29.93,WSW,242,0.0,0.0,73,0.00,,---,0.03,0.00,VWS V14.01,2013-08-05 00:29:00,
2013-08-04 20:30:00,71.6,62.5,29.93,WSW,242,0.0,1.0,73,0.00,,---,0.03,0.00,VWS V14.01,2013-08-05 00:30:00,
2013-08-04 20:34:00,71.6,62.9,29.93,WSW,242,0.0,0.0,74,0.00,,---,0.03,0.00,VWS V14.01,2013-08-05 00:34:00,
2013-08-04 20:39:00,71.6,62.5,29.93,WSW,242,0.0,0.0,73,0.00,,---,0.03,0.00,VWS V14.01,2013-08-05 00:39:00,
2013-08-04 20:40:00,71.4,63.5,29.94,WSW,242,0.0,0.0,76,0.00,,---,0.03,0.00,VWS V14.01,2013-08-05 00:40:00,
2013-08-04 20:44:00,71.6,63.6,29.93,WSW,242,0.0,0.0,76,0.00,,---,0.03,0.00,VWS V14.01,2013-08-05 00:44:00,
2013-08-04 20:49:00,71.4,63.5,29.94,WSW,242,0.0,0.0,76,0.00,,---,0.03,0.00,VWS V14.01,2013-08-05 00:49:00,
2013-08-04 20:50:00,70.6,62.7,29.94,WSW,242,0.0,1.0,76,0.00,,---,0.03,0.00,VWS V14.01,2013-08-05 00:50:00,
2013-08-04 20:54:00,70.9,63.3,29.94,WSW,242,0.0,1.0,77,0.00,,---,0.03,0.00,VWS V14.01,2013-08-05 00:54:00,
2013-08-04 20:59:00,70.6,62.7,29.94,WSW,242,0.0,1.0,76,0.00,,---,0.03,0.00,VWS V14.01,2013-08-05 00:59:00,
2013-08-04 21:00:00,70.3,63.1,29.95,WSW,242,0.0,1.0,78,0.00,,---,0.03,0.00,VWS V14.01,2013-08-05 01:00:00,
2013-08-04 21:04:00,70.4,63.2,29.95,WSW,242,0.0,1.0,78,0.00,,---,0.03,0.00,VWS V14.01,2013-08-05 01:04:00,
2013-08-04 21:09:00,70.2,63.0,29.95,WSW,242,0.0,0.0,78,0.00,,---,0.03,0.00,VWS V14.01,2013-08-05 01:09:00,
2013-08-04 21:10:00,70.0,63.2,29.95,WSW,242,0.0,1.0,79,0.00,,---,0.03,0.00,VWS V14.01,2013-08-05 01:10:00,
2013-08-04 21:15:00,70.0,62.8,29.95,WSW,242,0.0,0.0,78,0.00,,---,0.03,0.00,VWS V14.01,2013-08-05 01:15:00,
2013-08-04 21:19:00,69.9,63.1,29.95,WSW,242,0.0,0.0,79,0.00,,---,0.03,0.00,VWS V14.01,2013-08-05 01:19:00,
2013-08-04 21:20:00,69.9,63.8,29.95,WSW,242,0.0,0.0,81,0.00,,---,0.03,0.00,VWS V14.01,2013-08-05 01:20:00,
2013-08-04 21:25:00,69.9,63.1,29.95,WSW,242,0.0,0.0,79,0.00,,---,0.03,0.00,VWS V14.01,2013-08-05 01:25:00,
2013-08-04 21:30:00,69.8,63.7,29.95,WSW,242,0.0,0.0,81,0.00,,---,0.03,0.00,VWS V14.01,2013-08-05 01:30:00,
2013-08-04 21:35:00,69.7,63.3,29.95,WSW,242,0.0,1.0,80,0.00,,---,0.03,0.00,VWS V14.01,2013-08-05 01:35:00,
2013-08-04 21:40:00,69.8,63.7,29.95,WSW,242,0.0,0.0,81,0.00,,---,0.03,0.00,VWS V14.01,2013-08-05 01:40:00,
2013-08-04 21:45:00,69.7,63.6,29.95,WSW,242,0.0,0.0,81,0.00,,---,0.03,0.00,VWS V14.01,2013-08-05 01:45:00,
2013-08-04 21:50:00,69.6,63.5,29.96,WSW,242,0.0,0.0,81,0.00,,---,0.03,0.00,VWS V14.01,2013-08-05 01:50:00,
2013-08-04 21:55:00,69.4,63.0,29.96,WSW,242,0.0,1.0,80,0.00,,---,0.03,0.00,VWS V14.01,2013-08-05 01:55:00,
2013-08-04 22:00:00,69.2,63.1,29.96,WSW,242,0.0,0.0,81,0.00,,---,0.03,0.00,VWS V14.01,2013-08-05 02:00:00,
2013-08-04 22:05:00,68.9,62.8,29.97,WSW,242,0.0,1.0,81,0.00,,---,0.03,0.00,VWS V14.01,2013-08-05 02:05:00,
2013-08-04 22:10:00,68.7,62.6,29.97,WSW,242,0.0,0.0,81,0.00,,---,0.03,0.00,VWS V14.01,2013-08-05 02:10:00,
2013-08-04 22:15:00,68.5,62.8,29.96,WSW,242,0.0,0.0,82,0.00,,---,0.03,0.00,VWS V14.01,2013-08-05 02:15:00,
2013-08-04 22:20:00,68.4,63.0,29.97,WSW,242,0.0,0.0,83,0.00,,---,0.03,0.00,VWS V14.01,2013-08-05 02:20:00,
2013-08-04 22:26:00,68.2,62.8,29.97,WSW,242,0.0,0.0,83,0.00,,---,0.03,0.00,VWS V14.01,2013-08-05 02:26:00,
2013-08-04 22:30:00,67.5,62.5,29.97,WSW,242,0.0,0.0,84,0.00,,---,0.03,0.00,VWS V14.01,2013-08-05 02:30:00,
2013-08-04 22:31:00,67.9,62.5,29.96,WSW,242,0.0,0.0,83,0.00,,---,0.03,0.00,VWS V14.01,2013-08-05 02:31:00,
2013-08-04 22:35:00,67.6,62.3,29.97,WSW,242,0.0,0.0,83,0.00,,---,0.03,0.00,VWS V14.01,2013-08-05 02:35:00,
2013-08-04 22:40:00,67.3,62.3,29.97,WSW,242,0.0,0.0,84,0.00,,---,0.03,0.00,VWS V14.01,2013-08-05 02:40:00,
2013-08-04 22:41:00,67.4,62.4,29.97,WSW,242,0.0,0.0,84,0.00,,---,0.03,0.00,VWS V14.01,2013-08-05 02:41:00,
2013-08-04 22:46:00,67.3,62.0,29.97,WSW,242,0.0,0.0,83,0.00,,---,0.03,0.00,VWS V14.01,2013-08-05 02:46:00,
2013-08-04 22:50:00,66.9,62.2,29.98,WSW,242,0.0,0.0,85,0.00,,---,0.03,0.00,VWS V14.01,2013-08-05 02:50:00,
2013-08-04 22:51:00,67.2,62.2,29.97,WSW,242,0.0,0.0,84,0.00,,---,0.03,0.00,VWS V14.01,2013-08-05 02:51:00,
2013-08-04 22:56:00,67.0,62.3,29.98,WSW,242,0.0,0.0,85,0.00,,---,0.03,0.00,VWS V14.01,2013-08-05 02:56:00,
2013-08-04 23:00:00,66.3,62.0,29.98,WSW,242,0.0,0.0,86,0.00,,---,0.03,0.00,VWS V14.01,2013-08-05 03:00:00,
2013-08-04 23:01:00,66.7,62.0,29.97,WSW,242,0.0,0.0,85,0.00,,---,0.03,0.00,VWS V14.01,2013-08-05 03:01:00,
2013-08-04 23:06:00,66.4,62.1,29.98,WSW,242,0.0,0.0,86,0.00,,---,0.03,0.00,VWS V14.01,2013-08-05 03:06:00,
2013-08-04 23:10:00,66.1,62.1,29.98,WSW,242,0.0,0.0,87,0.00,,---,0.03,0.00,VWS V14.01,2013-08-05 03:10:00,
2013-08-04 23:11:00,66.2,61.9,29.98,WSW,242,0.0,0.0,86,0.00,,---,0.03,0.00,VWS V14.01,2013-08-05 03:11:00,
2013-08-04 23:16:00,66.1,61.8,29.98,WSW,242,0.0,0.0,86,0.00,,---,0.03,0.00,VWS V14.01,2013-08-05 03:16:00,
2013-08-04 23:20:00,66.1,62.1,29.98,WSW,242,0.0,0.0,87,0.00,,---,0.03,0.00,VWS V14.01,2013-08-05 03:20:00,
2013-08-04 23:21:00,66.1,62.1,29.98,WSW,242,0.0,0.0,87,0.00,,---,0.03,0.00,VWS V14.01,2013-08-05 03:21:00,
2013-08-04 23:26:00,66.1,62.1,29.98,WSW,242,0.0,0.0,87,0.00,,---,0.03,0.00,VWS V14.01,2013-08-05 03:26:00,
2013-08-04 23:30:00,66.2,62.2,29.98,WSW,242,0.0,0.0,87,0.00,,---,0.03,0.00,VWS V14.01,2013-08-05 03:30:00,
2013-08-04 23:32:00,66.1,62.1,29.98,WSW,242,0.0,0.0,87,0.00,,---,0.03,0.00,VWS V14.01,2013-08-05 03:32:00,
2013-08-04 23:37:00,66.2,62.2,29.98,WSW,242,0.0,0.0,87,0.00,,---,0.03,0.00,VWS V14.01,2013-08-05 03:37:00,
2013-08-04 23:40:00,66.2,62.5,29.98,WSW,242,0.0,0.0,88,0.00,,---,0.03,0.00,VWS V14.01,2013-08-05 03:40:00,
2013-08-04 23:42:00,66.2,62.5,29.98,WSW,242,0.0,0.0,88,0.00,,---,0.03,0.00,VWS V14.01,2013-08-05 03:42:00,
2013-08-04 23:47:00,66.2,62.5,29.97,WSW,242,0.0,0.0,88,0.00,,---,0.03,0.00,VWS V14.01,2013-08-05 03:47:00,
2013-08-04 23:50:00,66.2,62.5,29.98,WSW,242,0.0,0.0,88,0.00,,---,0.03,0.00,VWS V14.01,2013-08-05 03:50:00,
2013-08-04 23:52:00,66.2,62.5,29.98,WSW,242,0.0,0.0,88,0.00,,---,0.03,0.00,VWS V14.01,2013-08-05 03:52:00,
2013-08-04 23:57:00,66.2,62.5,29.98,WSW,242,0.0,0.0,88,0.00,,---,0.03,0.00,VWS V14.01,2013-08-05 03:57:00,